createdAt,value
2017-05-02T00:00:17.874Z,99.99
2017-05-02T00:01:17.845Z,99.99
2017-05-02T00:02:17.825Z,99.99
2017-05-02T00:03:17.841Z,99.99
2017-05-02T00:04:17.778Z,99.99
2017-05-02T00:05:17.755Z,99.99
2017-05-02T00:06:17.733Z,99.99
2017-05-02T00:07:17.710Z,99.99
2017-05-02T00:08:17.684Z,99.99
2017-05-02T00:09:17.664Z,99.99
2017-05-02T00:10:17.638Z,99.99
2017-05-02T00:11:17.618Z,99.99
2017-05-02T00:12:17.591Z,99.99
2017-05-02T00:13:17.569Z,99.99
2017-05-02T00:14:17.552Z,99.99
2017-05-02T00:15:17.524Z,99.99
2017-05-02T00:16:17.504Z,99.99
2017-05-02T00:17:17.477Z,99.99
2017-05-02T00:18:17.458Z,99.99
2017-05-02T00:19:17.430Z,99.99
2017-05-02T00:20:17.411Z,99.99
2017-05-02T00:21:17.388Z,99.99
2017-05-02T00:22:17.360Z,99.99
2017-05-02T00:23:17.341Z,99.99
2017-05-02T00:24:17.316Z,99.99
2017-05-02T00:25:17.293Z,99.99
2017-05-02T00:26:17.274Z,99.99
2017-05-02T00:27:17.250Z,99.99
2017-05-02T00:28:17.229Z,99.99
2017-05-02T00:29:17.205Z,99.99
2017-05-02T00:30:17.177Z,99.99
2017-05-02T00:31:17.159Z,99.99
2017-05-02T00:32:17.137Z,99.99
2017-05-02T00:33:17.108Z,99.99
2017-05-02T00:34:17.088Z,99.99
2017-05-02T00:35:17.063Z,99.99
2017-05-02T00:36:17.041Z,99.99
2017-05-02T00:37:17.021Z,99.99
2017-05-02T00:38:16.998Z,99.99
2017-05-02T00:39:16.977Z,99.99
2017-05-02T00:40:16.950Z,99.99
2017-05-02T00:41:16.928Z,99.99
2017-05-02T00:42:16.904Z,99.99
2017-05-02T00:43:16.881Z,99.99
2017-05-02T00:44:16.857Z,99.99
2017-05-02T00:45:16.835Z,99.99
2017-05-02T00:46:16.812Z,99.99
2017-05-02T00:47:16.795Z,99.99
2017-05-02T00:48:16.767Z,99.99
2017-05-02T00:49:16.743Z,99.99
2017-05-02T00:50:16.722Z,99.99
2017-05-02T00:51:16.700Z,99.99
2017-05-02T00:52:16.677Z,99.99
2017-05-02T00:53:16.354Z,99.99
2017-05-02T00:54:16.630Z,99.99
2017-05-02T00:55:16.607Z,99.99
2017-05-02T00:56:16.586Z,99.99
2017-05-02T00:57:16.561Z,99.99
2017-05-02T00:58:16.536Z,99.99
2017-05-02T00:59:16.517Z,99.99
2017-05-02T01:00:16.492Z,99.99
2017-05-02T01:01:16.469Z,99.99
2017-05-02T01:02:16.446Z,99.99
2017-05-02T01:03:16.426Z,99.99
2017-05-02T01:04:16.099Z,99.99
2017-05-02T01:05:16.376Z,99.99
2017-05-02T01:06:16.356Z,99.99
2017-05-02T01:07:16.331Z,99.99
2017-05-02T01:08:16.310Z,99.99
2017-05-02T01:09:16.289Z,99.99
2017-05-02T01:10:16.267Z,99.99
2017-05-02T01:11:16.238Z,99.99
2017-05-02T01:12:16.219Z,99.99
2017-05-02T01:13:15.891Z,99.99
2017-05-02T01:14:16.173Z,99.99
2017-05-02T01:15:16.149Z,99.99
2017-05-02T01:16:16.124Z,99.99
2017-05-02T01:17:15.802Z,99.99
2017-05-02T01:18:15.780Z,99.99
2017-05-02T01:19:15.754Z,99.99
2017-05-02T01:20:16.035Z,99.99
2017-05-02T01:21:16.020Z,99.99
2017-05-02T01:22:15.685Z,99.99
2017-05-02T01:23:15.968Z,99.99
2017-05-02T01:24:15.951Z,99.99
2017-05-02T01:25:15.920Z,99.99
2017-05-02T01:26:15.944Z,99.99
2017-05-02T01:27:15.872Z,99.99
2017-05-02T01:28:15.851Z,99.99
2017-05-02T01:29:15.533Z,99.99
2017-05-02T01:30:15.806Z,99.99
2017-05-02T01:31:15.783Z,99.99
2017-05-02T01:32:15.764Z,99.99
2017-05-02T01:33:15.442Z,99.99
2017-05-02T01:34:15.717Z,99.99
2017-05-02T01:35:15.388Z,99.99
2017-05-02T01:36:15.366Z,99.99
2017-05-02T01:37:15.647Z,99.99
2017-05-02T01:38:15.624Z,99.99
2017-05-02T01:39:15.297Z,99.99
2017-05-02T01:40:15.575Z,99.99
2017-05-02T01:41:15.249Z,99.99
2017-05-02T01:42:15.531Z,99.99
2017-05-02T01:43:15.509Z,99.99
2017-05-02T01:44:15.182Z,99.99
2017-05-02T01:45:15.459Z,99.99
2017-05-02T01:46:15.133Z,99.99
2017-05-02T01:47:15.415Z,99.99
2017-05-02T01:48:15.391Z,99.99
2017-05-02T01:49:15.375Z,99.99
2017-05-02T01:50:15.346Z,99.99
2017-05-02T01:51:15.020Z,99.99
2017-05-02T01:52:15.298Z,99.99
2017-05-02T01:53:14.976Z,99.99
2017-05-02T01:54:15.252Z,99.99
2017-05-02T01:55:14.928Z,99.99
2017-05-02T01:56:14.904Z,99.99
2017-05-02T01:57:14.879Z,99.99
2017-05-02T01:58:14.858Z,99.99
2017-05-02T01:59:15.143Z,99.99
2017-05-02T02:00:15.117Z,99.99
2017-05-02T02:01:14.789Z,99.99
2017-05-02T02:02:15.067Z,99.99
2017-05-02T02:03:14.742Z,99.99
2017-05-02T02:04:15.025Z,99.99
2017-05-02T02:05:14.998Z,99.99
2017-05-02T02:06:14.676Z,99.99
2017-05-02T02:07:14.955Z,99.99
2017-05-02T02:08:14.628Z,99.99
2017-05-02T02:09:14.605Z,99.99
2017-05-02T02:10:14.886Z,99.99
2017-05-02T02:11:14.864Z,99.99
2017-05-02T02:12:14.535Z,99.99
2017-05-02T02:13:14.819Z,99.99
2017-05-02T02:14:14.801Z,99.99
2017-05-02T02:15:14.769Z,99.99
2017-05-02T02:16:14.743Z,99.99
2017-05-02T02:17:14.724Z,99.99
2017-05-02T02:18:14.399Z,99.99
2017-05-02T02:19:14.676Z,99.99
2017-05-02T02:20:14.658Z,99.99
2017-05-02T02:21:14.357Z,99.99
2017-05-02T02:22:14.307Z,99.99
2017-05-02T02:23:14.283Z,99.99
2017-05-02T02:24:14.260Z,99.99
2017-05-02T02:25:14.536Z,99.99
2017-05-02T02:26:14.515Z,99.99
2017-05-02T02:27:14.489Z,99.99
2017-05-02T02:28:14.173Z,99.99
2017-05-02T02:29:14.445Z,99.99
2017-05-02T02:30:14.421Z,99.99
2017-05-02T02:31:14.398Z,99.99
2017-05-02T02:32:14.377Z,99.99
2017-05-02T02:33:14.055Z,99.99
2017-05-02T02:34:14.335Z,99.99
2017-05-02T02:35:14.310Z,99.99
2017-05-02T02:36:14.283Z,99.99
2017-05-02T02:37:14.263Z,99.99
2017-05-02T02:38:14.243Z,99.99
2017-05-02T02:39:14.217Z,99.99
2017-05-02T02:40:13.894Z,99.99
2017-05-02T02:41:14.169Z,99.99
2017-05-02T02:42:14.144Z,99.99
2017-05-02T02:43:14.124Z,99.99
2017-05-02T02:44:14.107Z,99.99
2017-05-02T02:45:14.075Z,99.99
2017-05-02T02:46:14.053Z,99.99
2017-05-02T02:47:14.032Z,99.99
2017-05-02T02:48:14.008Z,99.99
2017-05-02T02:49:13.988Z,99.99
2017-05-02T02:50:13.968Z,99.99
2017-05-02T02:51:13.938Z,99.99
2017-05-02T02:52:13.916Z,99.99
2017-05-02T02:53:13.892Z,99.99
2017-05-02T02:54:13.873Z,99.99
2017-05-02T02:55:13.849Z,99.99
2017-05-02T02:56:13.826Z,99.99
2017-05-02T02:57:13.805Z,99.99
2017-05-02T02:58:13.784Z,99.99
2017-05-02T02:59:13.757Z,99.99
2017-05-02T03:00:13.735Z,99.99
2017-05-02T03:01:13.713Z,99.99
2017-05-02T03:02:13.688Z,99.99
2017-05-02T03:03:13.663Z,99.99
2017-05-02T03:04:13.645Z,99.99
2017-05-02T03:05:13.618Z,99.99
2017-05-02T03:06:13.602Z,99.99
2017-05-02T03:07:13.575Z,99.99
2017-05-02T03:08:13.567Z,99.99
2017-05-02T03:09:13.534Z,99.99
2017-05-02T03:10:13.206Z,99.99
2017-05-02T03:11:13.485Z,99.99
2017-05-02T03:12:13.459Z,99.99
2017-05-02T03:13:13.440Z,99.99
2017-05-02T03:14:13.417Z,99.99
2017-05-02T03:15:13.397Z,99.99
2017-05-02T03:16:13.372Z,99.99
2017-05-02T03:17:13.352Z,99.99
2017-05-02T03:18:13.327Z,99.99
2017-05-02T03:19:13.310Z,99.99
2017-05-02T03:20:13.281Z,99.99
2017-05-02T03:21:13.255Z,99.99
2017-05-02T03:22:13.233Z,99.99
2017-05-02T03:23:13.213Z,99.99
2017-05-02T03:24:12.886Z,99.99
2017-05-02T03:25:13.166Z,99.99
2017-05-02T03:26:13.141Z,99.99
2017-05-02T03:27:13.120Z,99.99
2017-05-02T03:28:13.098Z,99.99
2017-05-02T03:29:13.075Z,99.99
2017-05-02T03:30:13.052Z,99.99
2017-05-02T03:31:13.026Z,99.99
2017-05-02T03:32:13.004Z,99.99
2017-05-02T03:33:12.983Z,99.99
2017-05-02T03:34:12.959Z,99.99
2017-05-02T03:35:12.937Z,99.99
2017-05-02T03:36:12.914Z,99.99
2017-05-02T03:37:12.891Z,99.99
2017-05-02T03:38:12.868Z,99.99
2017-05-02T03:39:12.845Z,99.99
2017-05-02T03:40:12.824Z,99.99
2017-05-02T03:41:12.799Z,99.99
2017-05-02T03:42:12.781Z,99.99
2017-05-02T03:43:12.758Z,99.99
2017-05-02T03:44:12.734Z,99.99
2017-05-02T03:45:12.706Z,99.99
2017-05-02T03:46:12.691Z,99.99
2017-05-02T03:47:12.666Z,99.99
2017-05-02T03:48:12.644Z,99.99
2017-05-02T03:49:12.623Z,99.99
2017-05-02T03:50:12.607Z,99.99
2017-05-02T03:51:12.580Z,99.99
2017-05-02T03:52:12.551Z,99.99
2017-05-02T03:53:12.530Z,99.99
2017-05-02T03:54:12.510Z,99.99
2017-05-02T03:55:12.484Z,99.99
2017-05-02T03:56:12.463Z,99.99
2017-05-02T03:57:12.440Z,99.99
2017-05-02T03:58:12.412Z,99.99
2017-05-02T03:59:12.397Z,99.99
2017-05-02T04:00:12.370Z,99.99
2017-05-02T04:01:12.354Z,99.99
2017-05-02T04:02:12.327Z,99.99
2017-05-02T04:03:12.307Z,99.93
2017-05-02T04:04:12.285Z,99.99
2017-05-02T04:05:12.258Z,99.99
2017-05-02T04:06:12.234Z,99.99
2017-05-02T04:07:12.216Z,99.93
2017-05-02T04:08:12.196Z,99.99
2017-05-02T04:09:12.169Z,99.99
2017-05-02T04:10:12.149Z,99.99
2017-05-02T04:11:12.128Z,99.99
2017-05-02T04:12:12.102Z,99.99
2017-05-02T04:13:12.084Z,99.99
2017-05-02T04:14:12.059Z,99.99
2017-05-02T04:15:12.037Z,99.93
2017-05-02T04:16:12.016Z,99.93
2017-05-02T04:17:11.992Z,99.93
2017-05-02T04:18:11.970Z,99.99
2017-05-02T04:19:11.951Z,99.83
2017-05-02T04:20:11.924Z,99.64
2017-05-02T04:21:11.902Z,99.93
2017-05-02T04:22:11.881Z,99.99
2017-05-02T04:23:11.860Z,99.93
2017-05-02T04:24:11.836Z,99.93
2017-05-02T04:25:11.815Z,99.99
2017-05-02T04:26:11.791Z,99.99
2017-05-02T04:27:11.771Z,99.93
2017-05-02T04:28:11.752Z,99.93
2017-05-02T04:29:11.734Z,99.83
2017-05-02T04:30:11.706Z,99.99
2017-05-02T04:31:11.682Z,99.74
2017-05-02T04:32:11.660Z,99.83
2017-05-02T04:33:11.641Z,99.83
2017-05-02T04:34:11.614Z,99.99
2017-05-02T04:35:11.598Z,99.99
2017-05-02T04:36:11.572Z,99.74
2017-05-02T04:37:11.550Z,99.74
2017-05-02T04:38:11.527Z,99.99
2017-05-02T04:39:11.507Z,99.93
2017-05-02T04:40:11.483Z,99.93
2017-05-02T04:41:11.465Z,99.99
2017-05-02T04:42:11.443Z,99.74
2017-05-02T04:43:11.419Z,99.74
2017-05-02T04:44:11.398Z,99.74
2017-05-02T04:45:11.372Z,99.83
2017-05-02T04:46:11.352Z,99.83
2017-05-02T04:47:11.329Z,99.74
2017-05-02T04:48:11.305Z,99.93
2017-05-02T04:49:11.288Z,99.93
2017-05-02T04:50:11.260Z,99.83
2017-05-02T04:51:11.239Z,99.64
2017-05-02T04:52:11.221Z,99.93
2017-05-02T04:53:10.897Z,99.74
2017-05-02T04:54:11.176Z,99.74
2017-05-02T04:55:11.150Z,99.93
2017-05-02T04:56:11.130Z,99.93
2017-05-02T04:57:11.104Z,99.93
2017-05-02T04:58:11.085Z,99.08
2017-05-02T04:59:11.065Z,99.45
2017-05-02T05:00:11.039Z,99.45
2017-05-02T05:01:11.017Z,99.36
2017-05-02T05:02:10.997Z,99.36
2017-05-02T05:03:10.676Z,99.55
2017-05-02T05:04:10.955Z,99.26
2017-05-02T05:05:10.930Z,99.55
2017-05-02T05:06:10.911Z,99.45
2017-05-02T05:07:10.880Z,99.55
2017-05-02T05:08:10.859Z,99.26
2017-05-02T05:09:10.537Z,99.36
2017-05-02T05:10:10.514Z,98.79
2017-05-02T05:11:10.795Z,99.26
2017-05-02T05:12:10.470Z,99.17
2017-05-02T05:13:10.753Z,99.36
2017-05-02T05:14:10.729Z,99.26
2017-05-02T05:15:10.406Z,99.55
2017-05-02T05:16:10.683Z,99.45
2017-05-02T05:17:10.361Z,99.55
2017-05-02T05:18:10.642Z,98.89
2017-05-02T05:19:10.317Z,99.08
2017-05-02T05:20:10.597Z,98.51
2017-05-02T05:21:10.573Z,98.6
2017-05-02T05:22:10.765Z,99.08
2017-05-02T05:23:10.532Z,98.79
2017-05-02T05:24:10.208Z,98.89
2017-05-02T05:25:10.488Z,99.36
2017-05-02T05:26:10.166Z,98.89
2017-05-02T05:27:10.441Z,98.89
2017-05-02T05:28:10.421Z,98.89
2017-05-02T05:29:10.401Z,98.7
2017-05-02T05:30:10.377Z,99.36
2017-05-02T05:31:10.354Z,99.26
2017-05-02T05:32:10.333Z,99.45
2017-05-02T05:33:10.011Z,99.26
2017-05-02T05:34:10.290Z,99.36
2017-05-02T05:35:09.963Z,99.45
2017-05-02T05:36:10.243Z,99.36
2017-05-02T05:37:10.224Z,99.45
2017-05-02T05:38:09.900Z,99.36
2017-05-02T05:39:10.178Z,99.17
2017-05-02T05:40:10.154Z,99.36
2017-05-02T05:41:09.831Z,99.26
2017-05-02T05:42:10.113Z,99.45
2017-05-02T05:43:10.092Z,99.45
2017-05-02T05:44:10.064Z,99.55
2017-05-02T05:45:10.045Z,99.26
2017-05-02T05:46:10.021Z,99.45
2017-05-02T05:47:10.000Z,99.36
2017-05-02T05:48:09.977Z,99.36
2017-05-02T05:49:09.955Z,99.45
2017-05-02T05:50:09.630Z,98.89
2017-05-02T05:51:09.809Z,99.26
2017-05-02T05:52:09.882Z,99.45
2017-05-02T05:53:09.863Z,99.26
2017-05-02T05:54:10.045Z,99.36
2017-05-02T05:55:09.815Z,99.17
2017-05-02T05:56:09.796Z,99.45
2017-05-02T05:57:09.771Z,99.45
2017-05-02T05:58:09.754Z,99.36
2017-05-02T05:59:09.429Z,98.7
2017-05-02T06:00:09.402Z,98.98
2017-05-02T06:01:09.690Z,99.17
2017-05-02T06:02:09.661Z,98.6
2017-05-02T06:03:09.635Z,98.79
2017-05-02T06:04:09.620Z,98.98
2017-05-02T06:05:09.592Z,98.89
2017-05-02T06:06:09.271Z,98.89
2017-05-02T06:07:09.549Z,98.51
2017-05-02T06:08:09.532Z,99.26
2017-05-02T06:09:09.508Z,98.51
2017-05-02T06:10:09.486Z,98.89
2017-05-02T06:11:09.459Z,98.89
2017-05-02T06:12:09.443Z,98.89
2017-05-02T06:13:09.421Z,98.98
2017-05-02T06:14:09.396Z,98.98
2017-05-02T06:15:09.376Z,99.17
2017-05-02T06:16:09.350Z,98.6
2017-05-02T06:17:09.327Z,98.89
2017-05-02T06:18:09.312Z,98.6
2017-05-02T06:19:09.285Z,98.41
2017-05-02T06:20:09.262Z,98.41
2017-05-02T06:21:09.241Z,98.6
2017-05-02T06:22:08.947Z,98.41
2017-05-02T06:23:09.202Z,98.13
2017-05-02T06:24:09.182Z,97.94
2017-05-02T06:25:09.154Z,98.23
2017-05-02T06:26:09.133Z,98.23
2017-05-02T06:27:09.127Z,98.23
2017-05-02T06:28:08.786Z,97.85
2017-05-02T06:29:09.073Z,98.13
2017-05-02T06:30:08.744Z,98.18
2017-05-02T06:31:09.022Z,97.85
2017-05-02T06:32:09.000Z,97.75
2017-05-02T06:33:08.980Z,98.13
2017-05-02T06:34:08.962Z,97.43
2017-05-02T06:35:08.938Z,97.56
2017-05-02T06:36:08.928Z,97.61
2017-05-02T06:37:08.896Z,97.52
2017-05-02T06:38:08.875Z,97.61
2017-05-02T06:39:08.853Z,97.8
2017-05-02T06:40:08.526Z,97.71
2017-05-02T06:41:08.814Z,97.52
2017-05-02T06:42:08.786Z,97.56
2017-05-02T06:43:08.763Z,97.71
2017-05-02T06:44:08.743Z,97.43
2017-05-02T06:45:08.720Z,97.52
2017-05-02T06:46:08.701Z,97.71
2017-05-02T06:47:08.680Z,97.38
2017-05-02T06:48:08.660Z,97.33
2017-05-02T06:49:08.337Z,97.33
2017-05-02T06:50:08.311Z,97.24
2017-05-02T06:51:08.593Z,97.52
2017-05-02T06:52:08.572Z,97.24
2017-05-02T06:53:08.550Z,97.05
2017-05-02T06:54:08.537Z,97.24
2017-05-02T06:55:08.724Z,96.95
2017-05-02T06:56:08.488Z,97.33
2017-05-02T06:57:08.471Z,97.24
2017-05-02T06:58:08.441Z,97.33
2017-05-02T06:59:08.427Z,96.95
2017-05-02T07:00:08.606Z,97.33
2017-05-02T07:01:08.380Z,96.95
2017-05-02T07:02:08.361Z,97.05
2017-05-02T07:03:08.340Z,97.05
2017-05-02T07:04:08.324Z,96.95
2017-05-02T07:05:08.298Z,97.05
2017-05-02T07:06:08.275Z,97.14
2017-05-02T07:07:08.254Z,97.05
2017-05-02T07:08:07.932Z,97.24
2017-05-02T07:09:08.210Z,96.58
2017-05-02T07:10:08.189Z,96.77
2017-05-02T07:11:08.210Z,96.67
2017-05-02T07:12:08.149Z,96.77
2017-05-02T07:13:08.131Z,96.77
2017-05-02T07:14:08.111Z,96.95
2017-05-02T07:15:08.090Z,97.24
2017-05-02T07:16:07.763Z,96.58
2017-05-02T07:17:08.044Z,96.95
2017-05-02T07:18:08.020Z,97.05
2017-05-02T07:19:08.003Z,96.58
2017-05-02T07:20:07.978Z,96.3
2017-05-02T07:21:07.956Z,96.01
2017-05-02T07:22:07.973Z,96.2
2017-05-02T07:23:07.919Z,95.36
2017-05-02T07:24:07.593Z,94.88
2017-05-02T07:25:07.876Z,95.83
2017-05-02T07:26:07.855Z,95.36
2017-05-02T07:27:07.836Z,95.07
2017-05-02T07:28:07.816Z,95.07
2017-05-02T07:29:07.795Z,95.07
2017-05-02T07:30:07.778Z,94.88
2017-05-02T07:31:07.758Z,95.07
2017-05-02T07:32:07.739Z,94.79
2017-05-02T07:33:07.719Z,94.69
2017-05-02T07:34:07.700Z,94.69
2017-05-02T07:35:07.677Z,95.07
2017-05-02T07:36:07.357Z,95.07
2017-05-02T07:37:07.636Z,94.79
2017-05-02T07:38:07.622Z,94.98
2017-05-02T07:39:07.597Z,95.26
2017-05-02T07:40:07.581Z,95.07
2017-05-02T07:41:07.556Z,94.51
2017-05-02T07:42:07.540Z,94.08
2017-05-02T07:43:07.517Z,93.99
2017-05-02T07:44:07.498Z,94.18
2017-05-02T07:45:07.480Z,93.99
2017-05-02T07:46:07.457Z,93.7
2017-05-02T07:47:07.439Z,93.51
2017-05-02T07:48:07.423Z,93.42
2017-05-02T07:49:07.407Z,93.51
2017-05-02T07:50:07.081Z,93.32
2017-05-02T07:51:07.064Z,93.42
2017-05-02T07:52:07.044Z,93.32
2017-05-02T07:53:07.326Z,93.42
2017-05-02T07:54:07.308Z,93.23
2017-05-02T07:55:06.987Z,93.13
2017-05-02T07:56:07.267Z,93.32
2017-05-02T07:57:07.249Z,93.04
2017-05-02T07:58:07.237Z,93.23
2017-05-02T07:59:07.215Z,92.76
2017-05-02T08:00:07.190Z,92.66
2017-05-02T08:01:06.874Z,92.19
2017-05-02T08:02:07.155Z,92.47
2017-05-02T08:03:07.143Z,92.66
2017-05-02T08:04:07.122Z,92.85
2017-05-02T08:05:07.101Z,93.09
2017-05-02T08:06:06.777Z,93.13
2017-05-02T08:07:07.063Z,93.04
2017-05-02T08:08:07.045Z,92.66
2017-05-02T08:09:07.025Z,92.66
2017-05-02T08:10:07.007Z,92.57
2017-05-02T08:11:06.987Z,92.38
2017-05-02T08:12:06.971Z,92.05
2017-05-02T08:13:06.979Z,91.77
2017-05-02T08:14:06.935Z,90.82
2017-05-02T08:15:06.916Z,90.16
2017-05-02T08:16:06.901Z,89.54
2017-05-02T08:17:06.884Z,89.54
2017-05-02T08:18:06.865Z,89.83
2017-05-02T08:19:06.851Z,90.45
2017-05-02T08:20:06.833Z,90.73
2017-05-02T08:21:06.820Z,91.2
2017-05-02T08:22:06.799Z,92
2017-05-02T08:23:06.777Z,91.82
2017-05-02T08:24:06.764Z,92.1
2017-05-02T08:25:06.749Z,92.29
2017-05-02T08:26:06.724Z,91.39
2017-05-02T08:27:06.706Z,91.44
2017-05-02T08:28:06.688Z,90.4
2017-05-02T08:29:06.679Z,90.45
2017-05-02T08:30:06.653Z,89.59
2017-05-02T08:31:06.640Z,89.45
2017-05-02T08:32:06.623Z,89.36
2017-05-02T08:33:06.608Z,89.45
2017-05-02T08:34:06.590Z,88.7
2017-05-02T08:35:06.574Z,88.6
2017-05-02T08:36:06.555Z,89.26
2017-05-02T08:37:06.538Z,89.73
2017-05-02T08:38:06.520Z,90.45
2017-05-02T08:39:06.503Z,90.16
2017-05-02T08:40:06.484Z,89.97
2017-05-02T08:41:06.513Z,90.16
2017-05-02T08:42:06.452Z,90.07
2017-05-02T08:43:06.434Z,89.69
2017-05-02T08:44:06.417Z,89.69
2017-05-02T08:45:06.401Z,89.22
2017-05-02T08:46:06.383Z,89.22
2017-05-02T08:47:06.069Z,89.69
2017-05-02T08:48:06.349Z,89.69
2017-05-02T08:49:06.337Z,89.88
2017-05-02T08:50:06.315Z,89.88
2017-05-02T08:51:05.997Z,89.88
2017-05-02T08:52:06.280Z,90.07
2017-05-02T08:53:06.264Z,89.4
2017-05-02T08:54:06.246Z,89.97
2017-05-02T08:55:06.229Z,89.88
2017-05-02T08:56:06.212Z,89.69
2017-05-02T08:57:05.891Z,89.78
2017-05-02T08:58:06.172Z,89.78
2017-05-02T08:59:06.155Z,90.26
2017-05-02T09:00:06.137Z,89.88
2017-05-02T09:01:06.121Z,89.64
2017-05-02T09:02:06.103Z,89.83
2017-05-02T09:03:06.085Z,90.16
2017-05-02T09:04:06.066Z,89.88
2017-05-02T09:05:05.743Z,89.69
2017-05-02T09:06:05.728Z,89.69
2017-05-02T09:07:06.013Z,89.97
2017-05-02T09:08:05.995Z,89.88
2017-05-02T09:09:05.976Z,89.78
2017-05-02T09:10:05.956Z,90.26
2017-05-02T09:11:05.938Z,89.97
2017-05-02T09:12:05.919Z,89.83
2017-05-02T09:13:05.598Z,89.83
2017-05-02T09:14:05.882Z,89.59
2017-05-02T09:15:05.867Z,89.59
2017-05-02T09:16:05.845Z,89.83
2017-05-02T09:17:05.827Z,89.59
2017-05-02T09:18:05.807Z,89.88
2017-05-02T09:19:05.791Z,89.69
2017-05-02T09:20:05.502Z,89.59
2017-05-02T09:21:05.454Z,89.78
2017-05-02T09:22:05.435Z,89.69
2017-05-02T09:23:05.418Z,89.22
2017-05-02T09:24:05.398Z,89.97
2017-05-02T09:25:05.381Z,90.07
2017-05-02T09:26:05.366Z,90.45
2017-05-02T09:27:05.647Z,90.16
2017-05-02T09:28:05.628Z,89.69
2017-05-02T09:29:05.613Z,89.78
2017-05-02T09:30:05.592Z,90.35
2017-05-02T09:31:05.572Z,89.88
2017-05-02T09:32:05.559Z,89.97
2017-05-02T09:33:05.539Z,90.07
2017-05-02T09:34:05.519Z,89.88
2017-05-02T09:35:05.503Z,89.97
2017-05-02T09:36:05.486Z,90.07
2017-05-02T09:37:05.467Z,89.59
2017-05-02T09:38:05.148Z,89.97
2017-05-02T09:39:05.428Z,89.93
2017-05-02T09:40:05.109Z,89.64
2017-05-02T09:41:05.392Z,89.5
2017-05-02T09:42:05.071Z,89.45
2017-05-02T09:43:05.389Z,89.97
2017-05-02T09:44:05.344Z,90.02
2017-05-02T09:45:05.320Z,90.12
2017-05-02T09:46:05.300Z,89.83
2017-05-02T09:47:05.283Z,89.55
2017-05-02T09:48:05.265Z,89.36
2017-05-02T09:49:05.247Z,89.12
2017-05-02T09:50:04.926Z,89.5
2017-05-02T09:51:05.214Z,89.5
2017-05-02T09:52:05.190Z,89.69
2017-05-02T09:53:04.873Z,89.31
2017-05-02T09:54:05.160Z,89.4
2017-05-02T09:55:04.838Z,89.88
2017-05-02T09:56:05.123Z,89.88
2017-05-02T09:57:05.106Z,89.78
2017-05-02T09:58:05.085Z,89.88
2017-05-02T09:59:04.764Z,89.59
2017-05-02T10:00:05.054Z,89.88
2017-05-02T10:01:05.031Z,90.45
2017-05-02T10:02:05.015Z,89.59
2017-05-02T10:03:04.993Z,90.35
2017-05-02T10:04:04.975Z,90.02
2017-05-02T10:05:04.658Z,90.12
2017-05-02T10:06:04.939Z,89.64
2017-05-02T10:07:04.921Z,89.69
2017-05-02T10:08:04.601Z,89.88
2017-05-02T10:09:04.585Z,89.88
2017-05-02T10:10:04.565Z,89.4
2017-05-02T10:11:04.852Z,89.97
2017-05-02T10:12:04.833Z,90.45
2017-05-02T10:13:04.813Z,89.69
2017-05-02T10:14:04.793Z,89.83
2017-05-02T10:15:04.783Z,89.5
2017-05-02T10:16:04.760Z,89.88
2017-05-02T10:17:04.739Z,90.02
2017-05-02T10:18:04.726Z,89.93
2017-05-02T10:19:04.706Z,89.74
2017-05-02T10:20:04.685Z,90.07
2017-05-02T10:21:04.667Z,90.35
2017-05-02T10:22:04.651Z,89.4
2017-05-02T10:23:04.633Z,89.88
2017-05-02T10:24:04.620Z,89.97
2017-05-02T10:25:04.299Z,89.59
2017-05-02T10:26:04.578Z,89.22
2017-05-02T10:27:04.562Z,89.22
2017-05-02T10:28:04.547Z,89.22
2017-05-02T10:29:04.523Z,89.22
2017-05-02T10:30:04.202Z,89.22
2017-05-02T10:31:04.501Z,89.31
2017-05-02T10:32:04.484Z,89.12
2017-05-02T10:33:04.464Z,89.22
2017-05-02T10:34:04.453Z,89.4
2017-05-02T10:35:04.432Z,89.59
2017-05-02T10:36:04.399Z,89.5
2017-05-02T10:37:04.413Z,89.4
2017-05-02T10:38:04.360Z,89.31
2017-05-02T10:39:04.341Z,89.22
2017-05-02T10:40:04.325Z,89.22
2017-05-02T10:41:04.308Z,88.75
2017-05-02T10:42:04.328Z,89.31
2017-05-02T10:43:04.273Z,88.93
2017-05-02T10:44:04.254Z,88.75
2017-05-02T10:45:03.936Z,88.65
2017-05-02T10:46:03.924Z,88.18
2017-05-02T10:47:04.209Z,87.43
2017-05-02T10:48:04.189Z,87.14
2017-05-02T10:49:04.173Z,87.09
2017-05-02T10:50:04.155Z,87.09
2017-05-02T10:51:04.140Z,87.05
2017-05-02T10:52:04.121Z,87.33
2017-05-02T10:53:04.107Z,87.33
2017-05-02T10:54:04.093Z,87.05
2017-05-02T10:55:04.069Z,87.33
2017-05-02T10:56:04.057Z,87.33
2017-05-02T10:57:04.037Z,87.05
2017-05-02T10:58:04.022Z,86.57
2017-05-02T10:59:04.001Z,86.48
2017-05-02T11:00:03.988Z,86.29
2017-05-02T11:01:03.667Z,86.67
2017-05-02T11:02:03.957Z,86.57
2017-05-02T11:03:03.637Z,86.71
2017-05-02T11:04:03.924Z,86.48
2017-05-02T11:05:03.906Z,86.01
2017-05-02T11:06:03.892Z,86.43
2017-05-02T11:07:03.877Z,86.24
2017-05-02T11:08:03.859Z,86.33
2017-05-02T11:09:03.853Z,86.43
2017-05-02T11:10:03.825Z,86.1
2017-05-02T11:11:03.806Z,86.24
2017-05-02T11:12:03.791Z,85.96
2017-05-02T11:13:03.776Z,85.58
2017-05-02T11:14:03.762Z,85.68
2017-05-02T11:15:03.745Z,85.58
2017-05-02T11:16:03.726Z,85.77
2017-05-02T11:17:03.711Z,85.68
2017-05-02T11:18:03.700Z,85.39
2017-05-02T11:19:03.683Z,85.68
2017-05-02T11:20:03.666Z,84.92
2017-05-02T11:21:03.648Z,84.45
2017-05-02T11:22:03.631Z,82.6
2017-05-02T11:23:03.619Z,81.93
2017-05-02T11:24:03.600Z,82.79
2017-05-02T11:25:03.587Z,82.12
2017-05-02T11:26:03.573Z,82.41
2017-05-02T11:27:03.554Z,81.84
2017-05-02T11:28:03.541Z,82.69
2017-05-02T11:29:03.529Z,82.5
2017-05-02T11:30:03.515Z,82.22
2017-05-02T11:31:03.494Z,82.6
2017-05-02T11:32:03.479Z,82.22
2017-05-02T11:33:03.469Z,83.36
2017-05-02T11:34:03.450Z,82.75
2017-05-02T11:35:03.439Z,83.12
2017-05-02T11:36:03.421Z,82.28
2017-05-02T11:37:03.405Z,82.79
2017-05-02T11:38:03.391Z,81.84
2017-05-02T11:39:03.376Z,82.22
2017-05-02T11:40:03.363Z,81.65
2017-05-02T11:41:03.045Z,81.37
2017-05-02T11:42:03.028Z,82.31
2017-05-02T11:43:03.319Z,81.93
2017-05-02T11:44:03.303Z,82.5
2017-05-02T11:45:03.291Z,82.18
2017-05-02T11:46:03.272Z,82.03
2017-05-02T11:47:03.261Z,81.27
2017-05-02T11:48:03.243Z,80.8
2017-05-02T11:49:03.230Z,80.8
2017-05-02T11:50:03.215Z,81.65
2017-05-02T11:51:03.202Z,82.12
2017-05-02T11:52:03.191Z,82.28
2017-05-02T11:53:03.174Z,82.56
2017-05-02T11:54:03.158Z,82.56
2017-05-02T11:55:03.143Z,82.09
2017-05-02T11:56:03.128Z,82.09
2017-05-02T11:57:03.116Z,81.56
2017-05-02T11:58:03.102Z,81.65
2017-05-02T11:59:03.088Z,81.56
2017-05-02T12:00:03.069Z,81.84
2017-05-02T12:01:03.058Z,82.18
2017-05-02T12:02:03.044Z,82.09
2017-05-02T12:03:03.024Z,81.65
2017-05-02T12:04:03.010Z,80.99
2017-05-02T12:05:02.996Z,81.27
2017-05-02T12:06:02.983Z,81.56
2017-05-02T12:07:02.965Z,81.56
2017-05-02T12:08:02.954Z,80.8
2017-05-02T12:09:02.939Z,80.52
2017-05-02T12:10:02.930Z,80.08
2017-05-02T12:11:02.914Z,79.24
2017-05-02T12:12:02.902Z,78.29
2017-05-02T12:13:02.885Z,77.25
2017-05-02T12:14:02.873Z,76.82
2017-05-02T12:15:02.858Z,76.72
2017-05-02T12:16:02.844Z,76.25
2017-05-02T12:17:02.828Z,76.15
2017-05-02T12:18:02.831Z,76.44
2017-05-02T12:19:02.807Z,76.59
2017-05-02T12:20:02.788Z,76.68
2017-05-02T12:21:02.778Z,76.31
2017-05-02T12:22:02.761Z,76.97
2017-05-02T12:23:02.745Z,77.25
2017-05-02T12:24:02.735Z,77.25
2017-05-02T12:25:02.718Z,76.78
2017-05-02T12:26:02.707Z,76.97
2017-05-02T12:27:02.389Z,77.72
2017-05-02T12:28:02.675Z,77.69
2017-05-02T12:29:02.662Z,78.06
2017-05-02T12:30:02.346Z,77.5
2017-05-02T12:31:02.332Z,77.69
2017-05-02T12:32:02.315Z,77.5
2017-05-02T12:33:02.600Z,77.21
2017-05-02T12:34:02.590Z,76.4
2017-05-02T12:35:02.274Z,75.93
2017-05-02T12:36:02.260Z,76.02
2017-05-02T12:37:02.550Z,75.64
2017-05-02T12:38:02.530Z,74.51
2017-05-02T12:39:02.215Z,73.22
2017-05-02T12:40:02.505Z,73.22
2017-05-02T12:41:02.491Z,73.18
2017-05-02T12:42:02.475Z,73.37
2017-05-02T12:43:02.463Z,73.66
2017-05-02T12:44:02.448Z,73.75
2017-05-02T12:45:02.434Z,74.47
2017-05-02T12:46:02.416Z,74.47
2017-05-02T12:47:02.404Z,74.66
2017-05-02T12:48:02.390Z,74.19
2017-05-02T12:49:02.414Z,73.09
2017-05-02T12:50:02.366Z,72.8
2017-05-02T12:51:02.341Z,70.29
2017-05-02T12:52:02.332Z,69.34
2017-05-02T12:53:02.319Z,69.34
2017-05-02T12:54:02.304Z,69.25